Warwick, Canada
Current Conditions -  °F | °C
As of 7:00 AM on Tuesday 27 Jan 2015 (Local Time) from CYSC Reporting Station
Overcast Overcast  
Wind Chill: -23°   Ceiling: 12000
Heat Index: -16°   Visibility: 9mi
Dew Point: -22°   Wind: 8mph
Humidity: 61%   Direction: 30°NNE
Pressure: 29.96"   Gusts: NA
Location:  45.95°N, 71.98°W
Report Text: CYSC 271200Z AUTO 03007KT 350V070 9SM OVC120 M16/M22 A2996 RMK SLP168
Loading
Personal Weather Stations






























Interactive Weather Map New forecast layout! Learn more

10-Day Weather Forecast

Advertisements
Track Severe Weather on mobile